Flight Track Log - Related Links

Times and Time Zones

All times are in EDT time to prevent confusion due to time zone crossing. See the N132VU flight status page for this flight to view local times or setup timezone preferences in your user account.

Time Position Orientation Groundspeed Altitude Reporting Facility
EDT Latitude Longitude Course Direction KTS MPH feet Rate Location/Type
Wed 11:14:15 PM 41.7794 -87.7500 299° West  Level FlightAware Approximate
Wed 11:15:22 PM 41.8000 -87.8000 236° Southwest 99 114 1,600  Level Chicago TRACON
Wed 11:16:22 PM 41.7833 -87.8333 217° Southwest 72 83 2,300 650 Climbing Chicago TRACON
Wed 11:17:22 PM 41.7667 -87.8500 360° North 61 70 2,900 600 Climbing Chicago TRACON
Wed 11:18:22 PM 41.7667 -87.8500 217° Southwest 50 58 3,500 545 Climbing Chicago TRACON
Wed 11:19:23 PM 41.7500 -87.8667 180° South 54 62 4,000 236 Climbing Chicago TRACON
Wed 11:20:29 PM 41.7333 -87.8667 224° Southwest 78 90 4,000  Level Chicago TRACON
Wed 11:21:04 PM 41.7200 -87.8839 212° Southwest 84 97 4,000  Level Chicago Center
Wed 11:22:04 PM 41.6992 -87.9011 215° Southwest 84 97 4,000  Level Chicago Center
Wed 11:23:04 PM 41.6808 -87.9181 207° Southwest 84 97 4,000 50 Level Chicago Center
Wed 11:24:04 PM 41.6600 -87.9325 212° Southwest 84 97 4,100  Climbing Chicago Center
Wed 11:25:04 PM 41.6394 -87.9494 215° Southwest 89 102 4,000 -50 Descending Chicago Center
Wed 11:26:04 PM 41.6208 -87.9667 212° Southwest 89 102 4,000  Level Chicago Center
Wed 11:27:04 PM 41.6003 -87.9839 209° Southwest 89 102 4,000  Level Chicago Center
Wed 11:28:04 PM 41.5775 -88.0008 215° Southwest 89 102 4,000  Level Chicago Center
Wed 11:29:04 PM 41.5589 -88.0181 207° Southwest 89 102 4,000  Level Chicago Center
Wed 11:30:04 PM 41.5383 -88.0322 214° Southwest 89 102 4,000  Level Chicago Center
Wed 11:31:04 PM 41.5197 -88.0492 208° Southwest 89 102 4,000  Level Chicago Center
Wed 11:32:04 PM 41.4950 -88.0664 214° Southwest 89 102 4,000  Level Chicago Center
Wed 11:33:04 PM 41.4764 -88.0833 214° Southwest 89 102 4,000  Level Chicago Center
Wed 11:34:04 PM 41.4578 -88.1003 212° Southwest 89 102 4,000  Level Chicago Center
Wed 11:35:04 PM 41.4372 -88.1175 214° Southwest 89 102 4,000 -50 Level Chicago Center
Wed 11:36:04 PM 41.4186 -88.1344 214° Southwest 89 102 3,900  Descending Chicago Center
Wed 11:37:04 PM 41.4000 -88.1514 211° Southwest 89 102 4,000 50 Climbing Chicago Center
Wed 11:38:04 PM 41.3792 -88.1683 218° Southwest 89 102 4,000  Level Chicago Center
Wed 11:39:04 PM 41.3606 -88.1881 213° Southwest 89 102 4,000  Level Chicago Center
Wed 11:40:04 PM 41.3442 -88.2022 212° Southwest 89 102 4,000  Level Chicago Center
Wed 11:41:04 PM 41.3236 -88.2192 214° Southwest 89 102 4,000  Level Chicago Center
Wed 11:42:04 PM 41.3050 -88.2361 211° Southwest 89 102 4,000  Level Chicago Center
Wed 11:43:04 PM 41.2842 -88.2531 214° Southwest 89 102 4,000  Level Chicago Center
Wed 11:44:04 PM 41.2656 -88.2697 212° Southwest 89 102 4,000  Level Chicago Center
Wed 11:45:04 PM 41.2450 -88.2867 214° Southwest 84 97 4,000  Level Chicago Center
Wed 11:46:04 PM 41.2264 -88.3036 211° Southwest 84 97 4,000  Level Chicago Center
Wed 11:47:04 PM 41.2056 -88.3206 211° Southwest 84 97 4,000  Level Chicago Center
Wed 11:48:04 PM 41.1850 -88.3372 211° Southwest 84 97 4,000  Level Chicago Center
Wed 11:49:04 PM 41.1642 -88.3542 219° Southwest 89 102 4,000  Level Chicago Center
Wed 11:50:04 PM 41.1456 -88.3739 214° Southwest 89 102 4,000  Level Chicago Center
Wed 11:51:04 PM 41.1269 -88.3906 212° Southwest 89 102 4,000  Level Chicago Center
Wed 11:52:04 PM 41.1064 -88.4075 209° Southwest 89 102 4,000  Level Chicago Center
Wed 11:53:04 PM 41.0878 -88.4214 219° Southwest 89 102 4,000  Level Chicago Center
Wed 11:54:04 PM 41.0692 -88.4411 207° Southwest 89 102 4,000  Level Chicago Center
Wed 11:55:04 PM 41.0483 -88.4550 219° Southwest 89 102 4,000  Level Chicago Center
Wed 11:56:04 PM 41.0297 -88.4747 209° Southwest 89 102 4,000  Level Chicago Center
Wed 11:57:04 PM 41.0111 -88.4886 212° Southwest 89 102 4,000 50 Level Chicago Center
Wed 11:58:04 PM 40.9903 -88.5056 214° Southwest 89 102 4,100  Climbing Chicago Center
Wed 11:59:04 PM 40.9717 -88.5222 207° Southwest 84 97 4,000 -50 Descending Chicago Center
Thu 12:00:04 AM 40.9508 -88.5361 214° Southwest 84 97 4,000  Level Chicago Center
Thu 12:01:04 AM 40.9322 -88.5528 210° Southwest 84 97 4,000  Level Chicago Center
Thu 12:02:04 AM 40.9136 -88.5669 222° Southwest 84 97 4,000  Level Chicago Center
Thu 12:03:04 AM 40.8972 -88.5864 215° Southwest 84 97 4,000  Level Chicago Center
Thu 12:04:04 AM 40.8764 -88.6058 207° Southwest 84 97 4,000  Level Chicago Center
Thu 12:05:04 AM 40.8556 -88.6197 234° Southwest 84 97 4,000  Level Chicago Center
Thu 12:06:04 AM 40.8433 -88.6419 232° Southwest 84 97 4,000  Level Chicago Center
Thu 12:07:04 AM 40.8289 -88.6667 244° Southwest 84 97 4,000 50 Level Chicago Center
Thu 12:08:04 AM 40.8186 -88.6942 229° Southwest 84 97 4,100  Climbing Chicago Center
Thu 12:09:04 AM 40.8042 -88.7164 236° Southwest 84 97 4,000 -50 Descending Chicago Center
Thu 12:10:04 AM 40.7917 -88.7411 229° Southwest 84 97 4,000 50 Level Chicago Center
Thu 12:11:04 AM 40.7772 -88.7631 120° Southeast 84 97 4,100 16 Climbing Chicago Center
Thu 12:18:15 AM 40.6830 -88.5175 121° Southeast  Level FlightAware Approximate
Thu 12:19:15 AM 40.6699 -88.4834 121° Southeast  Level FlightAware Approximate
Thu 12:20:15 AM 40.6567 -88.4493 121° Southeast  Level FlightAware Approximate
Thu 12:21:15 AM 40.6435 -88.4152 121° Southeast  Level FlightAware Approximate
Thu 12:22:15 AM 40.6303 -88.3811 121° Southeast  Level FlightAware Approximate
Thu 12:23:15 AM 40.6171 -88.3471 121° Southeast  Level FlightAware Approximate
Thu 12:24:15 AM 40.6039 -88.3130 121° Southeast  Level FlightAware Approximate
Thu 12:25:15 AM 40.5907 -88.2790 121° Southeast  Level FlightAware Approximate
Thu 12:26:15 AM 40.5775 -88.2449 122° Southeast  Level FlightAware Approximate
Thu 12:27:15 AM 40.5642 -88.2109 122° Southeast  Level FlightAware Approximate
Thu 12:28:15 AM 40.5510 -88.1769 122° Southeast  Level FlightAware Approximate
Thu 12:29:15 AM 40.5377 -88.1430 122° Southeast  Level FlightAware Approximate
Thu 12:30:15 AM 40.5243 -88.1086 122° Southeast  Level FlightAware Approximate
Thu 12:31:15 AM 40.5109 -88.0744 122° Southeast  Level FlightAware Approximate
Thu 12:32:15 AM 40.4976 -88.0402 123° Southeast  Level FlightAware Approximate
Thu 12:33:15 AM 40.4841 -88.0060 123° Southeast  Level FlightAware Approximate
Thu 12:34:15 AM 40.4707 -87.9718 123° Southeast  Level FlightAware Approximate
Thu 12:35:15 AM 40.4573 -87.9376 123° Southeast  Level FlightAware Approximate
Thu 12:36:15 AM 40.4439 -87.9034 124° Southeast  Level FlightAware Approximate
Thu 12:37:15 AM 40.4305 -87.8693 124° Southeast  Level FlightAware Approximate
Thu 12:38:15 AM 40.4170 -87.8351 124° Southeast  Level FlightAware Approximate
Thu 12:39:15 AM 40.4035 -87.8010 124° Southeast  Level FlightAware Approximate
Thu 12:40:15 AM 40.3901 -87.7669 125° Southeast  Level FlightAware Approximate
Thu 12:41:15 AM 40.3766 -87.7328 125° Southeast  Level FlightAware Approximate
Thu 12:42:15 AM 40.3631 -87.6987 126° Southeast  Level FlightAware Approximate
Thu 12:43:15 AM 40.3496 -87.6647 126° Southeast  Level FlightAware Approximate
Thu 12:44:15 AM 40.3361 -87.6306 127° Southeast  Level FlightAware Approximate
Thu 12:45:15 AM 40.3226 -87.5966 127° Southeast  Level FlightAware Approximate
Thu 12:46:15 AM 40.3090 -87.5625 128° Southeast  Level FlightAware Approximate
Thu 12:47:15 AM 40.2955 -87.5285 129° Southeast  Level FlightAware Approximate
Thu 12:48:15 AM 40.2820 -87.4945 129° Southeast  Level FlightAware Approximate
Thu 12:49:15 AM 40.2684 -87.4605 130° Southeast  Level FlightAware Approximate
Thu 12:50:15 AM 40.2548 -87.4266 131° Southeast  Level FlightAware Approximate
Thu 12:51:15 AM 40.2412 -87.3926 133° Southeast  Level FlightAware Approximate
Thu 12:52:15 AM 40.2276 -87.3587 134° Southeast  Level FlightAware Approximate
Thu 12:53:15 AM 40.2141 -87.3247 136° Southeast  Level FlightAware Approximate
Thu 12:54:15 AM 40.2004 -87.2908 139° Southeast  Level FlightAware Approximate
Thu 12:55:15 AM 40.1868 -87.2569 142° Southeast  Level FlightAware Approximate
Thu 12:56:15 AM 40.1732 -87.2230 146° Southeast  Level FlightAware Approximate
Thu 12:57:15 AM 40.1595 -87.1891 152° Southeast  Level FlightAware Approximate
Thu 12:58:15 AM 40.1459 -87.1553 159° South  Level FlightAware Approximate
Thu 12:59:15 AM 40.1322 -87.1214 171° South  Level FlightAware Approximate
Thu 01:00:15 AM 40.1186 -87.0876 186° South  Level FlightAware Approximate
Thu 01:01:15 AM 40.1049 -87.0538 206° Southwest  Level FlightAware Approximate
Thu 01:02:15 AM 40.0912 -87.0200 227° Southwest  Level FlightAware Approximate
Thu 01:03:15 AM 40.0775 -86.9862 243° Southwest  Level FlightAware Approximate
Thu 01:04:15 AM 40.0638 -86.9524 255° West  Level FlightAware Approximate
Thu 01:05:15 AM 40.0501 -86.9186 263° West  Level FlightAware Approximate
Thu 01:06:15 AM 40.0363 -86.8849 269° West  Level FlightAware Approximate
Thu 01:07:15 AM 40.0226 -86.8511 273° West  Level FlightAware Approximate
Thu 01:08:15 AM 40.0089 -86.8174 277° West  Level FlightAware Approximate
Thu 01:09:15 AM 39.9951 -86.7837 279° West  Level FlightAware Approximate
Thu 01:10:15 AM 39.9813 -86.7500 281° West  Level FlightAware Approximate
Thu 01:11:15 AM 39.9675 -86.7163 283° West  Level FlightAware Approximate
Thu 01:12:15 AM 39.9538 -86.6826 284° West  Level FlightAware Approximate
Thu 01:13:15 AM 39.9399 -86.6490 285° West  Level FlightAware Approximate
Thu 01:14:15 AM 39.9261 -86.6153 286° West  Level FlightAware Approximate
Thu 01:15:15 AM 39.9123 -86.5817 287° West  Level FlightAware Approximate
Thu 01:16:15 AM 39.8985 -86.5481 288° West  Level FlightAware Approximate
Thu 01:16:54 AM 40.0333 -87.1000 90° East 145 167 5,100  Level Indianapolis TRACON
Thu 01:17:48 AM 40.0333 -87.0667 114° Southeast 135 155 5,200  Climbing Indianapolis TRACON
Thu 01:18:48 AM 40.0167 -87.0167 90° East 142 163 5,100 -50 Descending Indianapolis TRACON
Thu 01:19:48 AM 40.0167 -86.9667 90° East 146 168 5,100 -50 Level Indianapolis TRACON
Thu 01:20:48 AM 40.0167 -86.9167 90° East 144 166 5,000  Descending Indianapolis TRACON
Thu 01:21:48 AM 40.0167 -86.8667 72° East 142 163 5,100 50 Climbing Indianapolis TRACON
Thu 01:22:48 AM 40.0333 -86.8000 90° East 142 163 5,100  Level Indianapolis TRACON
Thu 01:23:48 AM 40.0333 -86.7500 90° East 142 163 5,100  Level Indianapolis TRACON
Thu 01:24:49 AM 40.0333 -86.7000 90° East 141 162 5,100  Level Indianapolis TRACON
Thu 01:25:49 AM 40.0333 -86.6500 90° East 140 161 5,100  Level Indianapolis TRACON
Thu 01:26:49 AM 40.0333 -86.6000 90° East 142 163 5,100  Level Indianapolis TRACON
Thu 01:27:49 AM 40.0333 -86.5500 90° East 137 158 5,100  Level Indianapolis TRACON

Login

Don't have an account? Register now (free) for customized features, flight alerts, and more!